sensor_id;sensor_type;location;lat;lon;timestamp;P1;durP1;ratioP1;P2;durP2;ratioP2
31537;SDS011;18147;51.952;6.146;2023-04-25T00:01:59;21.70;;;4.68;;
31537;SDS011;18147;51.952;6.146;2023-04-25T00:04:25;19.75;;;5.13;;
31537;SDS011;18147;51.952;6.146;2023-04-25T00:06:52;17.13;;;5.55;;
31537;SDS011;18147;51.952;6.146;2023-04-25T00:09:19;21.52;;;5.30;;
31537;SDS011;18147;51.952;6.146;2023-04-25T00:11:44;15.82;;;5.10;;
31537;SDS011;18147;51.952;6.146;2023-04-25T00:14:10;16.58;;;5.97;;
31537;SDS011;18147;51.952;6.146;2023-04-25T00:16:35;18.98;;;5.95;;
31537;SDS011;18147;51.952;6.146;2023-04-25T00:19:01;17.05;;;5.72;;
31537;SDS011;18147;51.952;6.146;2023-04-25T00:21:27;15.27;;;4.97;;
31537;SDS011;18147;51.952;6.146;2023-04-25T00:23:53;21.05;;;5.43;;
31537;SDS011;18147;51.952;6.146;2023-04-25T00:26:19;20.10;;;5.72;;
31537;SDS011;18147;51.952;6.146;2023-04-25T00:28:46;18.05;;;5.47;;
31537;SDS011;18147;51.952;6.146;2023-04-25T00:31:12;17.90;;;5.45;;
31537;SDS011;18147;51.952;6.146;2023-04-25T00:33:38;18.13;;;5.60;;
31537;SDS011;18147;51.952;6.146;2023-04-25T00:36:03;20.83;;;5.60;;
31537;SDS011;18147;51.952;6.146;2023-04-25T00:38:29;25.15;;;7.10;;
31537;SDS011;18147;51.952;6.146;2023-04-25T00:40:54;16.92;;;5.65;;
31537;SDS011;18147;51.952;6.146;2023-04-25T00:43:21;18.48;;;5.05;;
31537;SDS011;18147;51.952;6.146;2023-04-25T00:45:47;18.40;;;6.10;;
31537;SDS011;18147;51.952;6.146;2023-04-25T00:48:16;30.95;;;7.38;;
31537;SDS011;18147;51.952;6.146;2023-04-25T00:50:43;22.83;;;5.60;;
31537;SDS011;18147;51.952;6.146;2023-04-25T00:53:18;23.23;;;6.18;;
31537;SDS011;18147;51.952;6.146;2023-04-25T00:55:43;22.55;;;6.00;;
31537;SDS011;18147;51.952;6.146;2023-04-25T00:58:09;23.13;;;6.22;;
31537;SDS011;18147;51.952;6.146;2023-04-25T01:00:35;22.13;;;6.25;;
31537;SDS011;18147;51.952;6.146;2023-04-25T01:03:01;28.00;;;6.18;;
31537;SDS011;18147;51.952;6.146;2023-04-25T01:05:27;18.77;;;6.07;;
31537;SDS011;18147;51.952;6.146;2023-04-25T01:07:53;24.90;;;6.65;;
31537;SDS011;18147;51.952;6.146;2023-04-25T01:10:19;25.92;;;5.78;;
31537;SDS011;18147;51.952;6.146;2023-04-25T01:12:45;19.67;;;6.40;;
31537;SDS011;18147;51.952;6.146;2023-04-25T01:15:10;29.75;;;8.43;;
31537;SDS011;18147;51.952;6.146;2023-04-25T01:17:36;21.63;;;5.72;;
31537;SDS011;18147;51.952;6.146;2023-04-25T01:20:05;34.30;;;7.70;;
31537;SDS011;18147;51.952;6.146;2023-04-25T01:22:32;31.23;;;7.47;;
31537;SDS011;18147;51.952;6.146;2023-04-25T01:24:58;25.95;;;7.10;;
31537;SDS011;18147;51.952;6.146;2023-04-25T01:27:25;24.15;;;6.57;;
31537;SDS011;18147;51.952;6.146;2023-04-25T01:29:51;29.90;;;6.53;;
31537;SDS011;18147;51.952;6.146;2023-04-25T01:32:16;40.40;;;7.28;;
31537;SDS011;18147;51.952;6.146;2023-04-25T01:34:43;24.45;;;7.03;;
31537;SDS011;18147;51.952;6.146;2023-04-25T01:37:08;32.45;;;7.43;;
31537;SDS011;18147;51.952;6.146;2023-04-25T01:39:34;23.88;;;7.40;;
31537;SDS011;18147;51.952;6.146;2023-04-25T01:42:00;25.05;;;7.05;;
31537;SDS011;18147;51.952;6.146;2023-04-25T01:44:26;25.58;;;6.43;;
31537;SDS011;18147;51.952;6.146;2023-04-25T01:46:52;19.08;;;6.82;;
31537;SDS011;18147;51.952;6.146;2023-04-25T01:49:18;22.15;;;6.80;;
31537;SDS011;18147;51.952;6.146;2023-04-25T01:51:44;23.23;;;6.80;;
31537;SDS011;18147;51.952;6.146;2023-04-25T01:54:10;20.80;;;6.43;;
31537;SDS011;18147;51.952;6.146;2023-04-25T01:56:37;43.70;;;7.60;;
31537;SDS011;18147;51.952;6.146;2023-04-25T01:59:04;22.60;;;6.60;;
31537;SDS011;18147;51.952;6.146;2023-04-25T02:01:50;25.88;;;7.32;;
31537;SDS011;18147;51.952;6.146;2023-04-25T02:04:22;27.73;;;6.80;;
31537;SDS011;18147;51.952;6.146;2023-04-25T02:06:47;30.48;;;8.32;;
31537;SDS011;18147;51.952;6.146;2023-04-25T02:09:14;25.48;;;7.40;;
31537;SDS011;18147;51.952;6.146;2023-04-25T02:11:44;37.38;;;8.07;;
31537;SDS011;18147;51.952;6.146;2023-04-25T02:14:29;32.58;;;7.28;;
31537;SDS011;18147;51.952;6.146;2023-04-25T02:17:15;33.53;;;8.15;;
31537;SDS011;18147;51.952;6.146;2023-04-25T02:19:41;33.92;;;8.25;;
31537;SDS011;18147;51.952;6.146;2023-04-25T02:22:06;24.83;;;6.57;;
31537;SDS011;18147;51.952;6.146;2023-04-25T02:24:32;24.60;;;6.55;;
31537;SDS011;18147;51.952;6.146;2023-04-25T02:26:58;31.52;;;7.82;;
31537;SDS011;18147;51.952;6.146;2023-04-25T02:29:24;37.35;;;7.38;;
31537;SDS011;18147;51.952;6.146;2023-04-25T02:31:50;29.58;;;7.82;;
31537;SDS011;18147;51.952;6.146;2023-04-25T02:34:16;25.05;;;6.60;;
31537;SDS011;18147;51.952;6.146;2023-04-25T02:36:41;23.10;;;6.53;;
31537;SDS011;18147;51.952;6.146;2023-04-25T02:39:07;33.92;;;7.22;;
31537;SDS011;18147;51.952;6.146;2023-04-25T02:41:33;24.00;;;6.28;;
31537;SDS011;18147;51.952;6.146;2023-04-25T02:43:59;24.08;;;7.85;;
31537;SDS011;18147;51.952;6.146;2023-04-25T02:46:24;29.98;;;8.05;;
31537;SDS011;18147;51.952;6.146;2023-04-25T02:48:50;35.67;;;6.45;;
31537;SDS011;18147;51.952;6.146;2023-04-25T02:51:15;21.98;;;6.15;;
31537;SDS011;18147;51.952;6.146;2023-04-25T02:53:42;28.73;;;7.72;;
31537;SDS011;18147;51.952;6.146;2023-04-25T02:56:07;18.88;;;5.75;;
31537;SDS011;18147;51.952;6.146;2023-04-25T02:58:33;31.67;;;8.98;;
31537;SDS011;18147;51.952;6.146;2023-04-25T03:00:58;27.38;;;7.28;;
31537;SDS011;18147;51.952;6.146;2023-04-25T03:03:24;21.63;;;6.82;;
31537;SDS011;18147;51.952;6.146;2023-04-25T03:05:50;27.15;;;6.78;;
31537;SDS011;18147;51.952;6.146;2023-04-25T03:08:21;29.40;;;6.95;;
31537;SDS011;18147;51.952;6.146;2023-04-25T03:10:47;21.77;;;7.50;;
31537;SDS011;18147;51.952;6.146;2023-04-25T03:13:15;23.15;;;7.22;;
31537;SDS011;18147;51.952;6.146;2023-04-25T03:15:42;33.30;;;7.22;;
31537;SDS011;18147;51.952;6.146;2023-04-25T03:18:07;28.48;;;7.72;;
31537;SDS011;18147;51.952;6.146;2023-04-25T03:20:33;23.48;;;7.68;;
31537;SDS011;18147;51.952;6.146;2023-04-25T03:22:58;32.85;;;7.32;;
31537;SDS011;18147;51.952;6.146;2023-04-25T03:25:24;28.27;;;6.70;;
31537;SDS011;18147;51.952;6.146;2023-04-25T03:27:50;26.50;;;7.47;;
31537;SDS011;18147;51.952;6.146;2023-04-25T03:30:16;31.77;;;7.82;;
31537;SDS011;18147;51.952;6.146;2023-04-25T03:32:43;29.42;;;8.65;;
31537;SDS011;18147;51.952;6.146;2023-04-25T03:35:08;27.27;;;7.13;;
31537;SDS011;18147;51.952;6.146;2023-04-25T03:37:34;31.83;;;7.50;;
31537;SDS011;18147;51.952;6.146;2023-04-25T03:40:00;25.67;;;6.55;;
31537;SDS011;18147;51.952;6.146;2023-04-25T03:42:38;33.80;;;7.57;;
31537;SDS011;18147;51.952;6.146;2023-04-25T03:45:04;30.90;;;7.65;;
31537;SDS011;18147;51.952;6.146;2023-04-25T03:47:30;19.48;;;5.95;;
31537;SDS011;18147;51.952;6.146;2023-04-25T03:49:56;26.13;;;6.57;;
31537;SDS011;18147;51.952;6.146;2023-04-25T03:52:23;24.95;;;7.07;;
31537;SDS011;18147;51.952;6.146;2023-04-25T03:54:48;29.05;;;6.75;;
31537;SDS011;18147;51.952;6.146;2023-04-25T03:57:17;29.15;;;7.50;;
31537;SDS011;18147;51.952;6.146;2023-04-25T03:59:43;28.85;;;8.32;;
31537;SDS011;18147;51.952;6.146;2023-04-25T04:02:11;32.00;;;7.75;;
31537;SDS011;18147;51.952;6.146;2023-04-25T04:04:38;20.13;;;6.60;;
31537;SDS011;18147;51.952;6.146;2023-04-25T04:07:03;36.72;;;6.72;;
31537;SDS011;18147;51.952;6.146;2023-04-25T04:09:33;29.65;;;7.07;;
31537;SDS011;18147;51.952;6.146;2023-04-25T04:12:02;28.25;;;7.50;;
31537;SDS011;18147;51.952;6.146;2023-04-25T04:14:29;22.50;;;7.15;;
31537;SDS011;18147;51.952;6.146;2023-04-25T04:16:55;26.55;;;7.32;;
31537;SDS011;18147;51.952;6.146;2023-04-25T04:19:21;21.60;;;6.68;;
31537;SDS011;18147;51.952;6.146;2023-04-25T04:21:55;24.00;;;7.22;;
31537;SDS011;18147;51.952;6.146;2023-04-25T04:24:20;25.23;;;6.43;;
31537;SDS011;18147;51.952;6.146;2023-04-25T04:27:00;27.63;;;7.22;;
31537;SDS011;18147;51.952;6.146;2023-04-25T04:29:32;29.85;;;7.90;;
31537;SDS011;18147;51.952;6.146;2023-04-25T04:32:12;30.85;;;7.70;;
31537;SDS011;18147;51.952;6.146;2023-04-25T04:34:39;30.38;;;7.38;;
31537;SDS011;18147;51.952;6.146;2023-04-25T04:37:04;21.58;;;7.10;;
31537;SDS011;18147;51.952;6.146;2023-04-25T04:39:32;32.70;;;7.97;;
31537;SDS011;18147;51.952;6.146;2023-04-25T04:42:08;27.38;;;7.10;;
31537;SDS011;18147;51.952;6.146;2023-04-25T04:44:52;18.33;;;7.50;;
31537;SDS011;18147;51.952;6.146;2023-04-25T04:47:26;24.42;;;7.65;;
31537;SDS011;18147;51.952;6.146;2023-04-25T04:50:10;22.77;;;7.95;;
31537;SDS011;18147;51.952;6.146;2023-04-25T04:52:50;16.83;;;6.45;;
31537;SDS011;18147;51.952;6.146;2023-04-25T04:55:38;22.25;;;7.57;;
31537;SDS011;18147;51.952;6.146;2023-04-25T04:58:19;23.58;;;7.07;;
31537;SDS011;18147;51.952;6.146;2023-04-25T05:00:51;22.15;;;7.47;;
31537;SDS011;18147;51.952;6.146;2023-04-25T05:03:40;26.75;;;7.38;;
31537;SDS011;18147;51.952;6.146;2023-04-25T05:06:32;27.77;;;6.97;;
31537;SDS011;18147;51.952;6.146;2023-04-25T05:09:17;19.35;;;5.28;;
31537;SDS011;18147;51.952;6.146;2023-04-25T05:12:13;32.10;;;7.38;;
31537;SDS011;18147;51.952;6.146;2023-04-25T05:14:59;19.83;;;6.30;;
31537;SDS011;18147;51.952;6.146;2023-04-25T05:17:37;24.25;;;7.28;;
31537;SDS011;18147;51.952;6.146;2023-04-25T05:23:06;20.48;;;5.30;;
31537;SDS011;18147;51.952;6.146;2023-04-25T05:25:58;27.15;;;6.68;;
31537;SDS011;18147;51.952;6.146;2023-04-25T05:28:35;27.63;;;6.75;;
31537;SDS011;18147;51.952;6.146;2023-04-25T05:31:35;17.65;;;5.97;;
31537;SDS011;18147;51.952;6.146;2023-04-25T05:34:07;14.95;;;6.25;;
31537;SDS011;18147;51.952;6.146;2023-04-25T05:36:48;24.55;;;6.10;;
31537;SDS011;18147;51.952;6.146;2023-04-25T05:39:15;20.25;;;6.43;;
31537;SDS011;18147;51.952;6.146;2023-04-25T05:42:00;17.95;;;5.70;;
31537;SDS011;18147;51.952;6.146;2023-04-25T05:44:45;20.17;;;5.75;;
31537;SDS011;18147;51.952;6.146;2023-04-25T05:47:34;26.20;;;6.70;;
31537;SDS011;18147;51.952;6.146;2023-04-25T05:50:08;24.27;;;6.70;;
31537;SDS011;18147;51.952;6.146;2023-04-25T05:52:54;15.55;;;5.68;;
31537;SDS011;18147;51.952;6.146;2023-04-25T05:55:28;22.02;;;6.03;;
31537;SDS011;18147;51.952;6.146;2023-04-25T05:57:54;15.52;;;5.38;;
31537;SDS011;18147;51.952;6.146;2023-04-25T06:00:19;16.15;;;4.22;;
31537;SDS011;18147;51.952;6.146;2023-04-25T06:02:48;17.00;;;5.72;;
31537;SDS011;18147;51.952;6.146;2023-04-25T06:05:14;18.02;;;5.18;;
31537;SDS011;18147;51.952;6.146;2023-04-25T06:07:39;12.52;;;4.88;;
31537;SDS011;18147;51.952;6.146;2023-04-25T06:10:05;14.10;;;4.00;;
31537;SDS011;18147;51.952;6.146;2023-04-25T06:12:33;16.95;;;4.15;;
31537;SDS011;18147;51.952;6.146;2023-04-25T06:14:59;12.13;;;3.30;;
31537;SDS011;18147;51.952;6.146;2023-04-25T06:17:25;13.93;;;3.50;;
31537;SDS011;18147;51.952;6.146;2023-04-25T06:19:51;6.07;;;2.63;;
31537;SDS011;18147;51.952;6.146;2023-04-25T06:22:17;8.80;;;2.80;;
31537;SDS011;18147;51.952;6.146;2023-04-25T06:24:43;12.18;;;3.10;;
31537;SDS011;18147;51.952;6.146;2023-04-25T06:27:08;11.85;;;3.13;;
31537;SDS011;18147;51.952;6.146;2023-04-25T06:29:34;12.50;;;2.78;;
31537;SDS011;18147;51.952;6.146;2023-04-25T06:32:00;8.60;;;2.40;;
31537;SDS011;18147;51.952;6.146;2023-04-25T06:34:25;10.35;;;2.78;;
31537;SDS011;18147;51.952;6.146;2023-04-25T06:36:51;10.85;;;2.53;;
31537;SDS011;18147;51.952;6.146;2023-04-25T06:39:17;7.32;;;2.45;;
31537;SDS011;18147;51.952;6.146;2023-04-25T06:41:42;7.43;;;2.80;;
31537;SDS011;18147;51.952;6.146;2023-04-25T06:44:28;11.10;;;3.20;;
31537;SDS011;18147;51.952;6.146;2023-04-25T06:46:54;9.52;;;3.33;;
31537;SDS011;18147;51.952;6.146;2023-04-25T06:49:21;9.80;;;2.83;;
31537;SDS011;18147;51.952;6.146;2023-04-25T06:51:47;9.90;;;3.15;;
31537;SDS011;18147;51.952;6.146;2023-04-25T06:54:13;10.35;;;2.90;;
31537;SDS011;18147;51.952;6.146;2023-04-25T06:56:47;12.20;;;2.85;;
31537;SDS011;18147;51.952;6.146;2023-04-25T06:59:14;13.32;;;2.92;;
31537;SDS011;18147;51.952;6.146;2023-04-25T07:01:41;11.02;;;2.97;;
31537;SDS011;18147;51.952;6.146;2023-04-25T07:04:14;9.80;;;3.17;;
31537;SDS011;18147;51.952;6.146;2023-04-25T07:06:45;10.02;;;3.28;;
31537;SDS011;18147;51.952;6.146;2023-04-25T07:09:15;7.50;;;2.80;;
31537;SDS011;18147;51.952;6.146;2023-04-25T07:11:45;10.20;;;2.95;;
31537;SDS011;18147;51.952;6.146;2023-04-25T07:14:11;13.73;;;2.45;;
31537;SDS011;18147;51.952;6.146;2023-04-25T07:16:36;12.50;;;2.53;;
31537;SDS011;18147;51.952;6.146;2023-04-25T07:19:02;10.82;;;2.20;;
31537;SDS011;18147;51.952;6.146;2023-04-25T07:21:27;10.07;;;2.72;;
31537;SDS011;18147;51.952;6.146;2023-04-25T07:23:54;10.30;;;2.95;;
31537;SDS011;18147;51.952;6.146;2023-04-25T07:26:25;11.45;;;2.92;;
31537;SDS011;18147;51.952;6.146;2023-04-25T07:29:09;7.40;;;2.25;;
31537;SDS011;18147;51.952;6.146;2023-04-25T07:31:35;13.25;;;2.70;;
31537;SDS011;18147;51.952;6.146;2023-04-25T07:34:04;11.43;;;2.97;;
31537;SDS011;18147;51.952;6.146;2023-04-25T07:36:30;10.00;;;2.55;;
31537;SDS011;18147;51.952;6.146;2023-04-25T07:38:56;13.60;;;2.55;;
31537;SDS011;18147;51.952;6.146;2023-04-25T07:41:22;11.13;;;2.67;;
31537;SDS011;18147;51.952;6.146;2023-04-25T07:43:48;11.10;;;2.47;;
31537;SDS011;18147;51.952;6.146;2023-04-25T07:46:14;13.55;;;3.15;;
31537;SDS011;18147;51.952;6.146;2023-04-25T07:48:41;10.63;;;2.75;;
31537;SDS011;18147;51.952;6.146;2023-04-25T07:51:07;7.03;;;2.90;;
31537;SDS011;18147;51.952;6.146;2023-04-25T07:53:35;7.65;;;2.85;;
31537;SDS011;18147;51.952;6.146;2023-04-25T07:56:07;11.65;;;3.35;;
31537;SDS011;18147;51.952;6.146;2023-04-25T07:58:37;16.00;;;3.38;;
31537;SDS011;18147;51.952;6.146;2023-04-25T08:01:06;14.38;;;3.42;;
31537;SDS011;18147;51.952;6.146;2023-04-25T08:03:47;15.43;;;3.47;;
31537;SDS011;18147;51.952;6.146;2023-04-25T08:09:05;13.27;;;3.17;;
31537;SDS011;18147;51.952;6.146;2023-04-25T08:11:36;11.52;;;3.05;;
31537;SDS011;18147;51.952;6.146;2023-04-25T08:14:03;15.52;;;2.80;;
31537;SDS011;18147;51.952;6.146;2023-04-25T08:16:28;15.55;;;2.92;;
31537;SDS011;18147;51.952;6.146;2023-04-25T08:18:55;14.27;;;2.60;;
31537;SDS011;18147;51.952;6.146;2023-04-25T08:21:21;7.22;;;2.40;;
31537;SDS011;18147;51.952;6.146;2023-04-25T08:23:47;13.98;;;3.83;;
31537;SDS011;18147;51.952;6.146;2023-04-25T08:26:22;11.82;;;3.90;;
31537;SDS011;18147;51.952;6.146;2023-04-25T08:28:49;11.15;;;2.83;;
31537;SDS011;18147;51.952;6.146;2023-04-25T08:31:15;11.95;;;2.35;;
31537;SDS011;18147;51.952;6.146;2023-04-25T08:33:50;6.82;;;2.60;;
31537;SDS011;18147;51.952;6.146;2023-04-25T08:36:22;16.65;;;3.10;;
31537;SDS011;18147;51.952;6.146;2023-04-25T08:38:49;14.25;;;2.17;;
31537;SDS011;18147;51.952;6.146;2023-04-25T08:41:17;8.57;;;2.55;;
31537;SDS011;18147;51.952;6.146;2023-04-25T08:43:45;10.48;;;2.50;;
31537;SDS011;18147;51.952;6.146;2023-04-25T08:46:13;14.00;;;2.60;;
31537;SDS011;18147;51.952;6.146;2023-04-25T08:49:00;15.30;;;3.50;;
31537;SDS011;18147;51.952;6.146;2023-04-25T08:51:27;5.70;;;1.73;;
31537;SDS011;18147;51.952;6.146;2023-04-25T08:54:11;6.18;;;1.88;;
31537;SDS011;18147;51.952;6.146;2023-04-25T08:56:38;9.45;;;1.90;;
31537;SDS011;18147;51.952;6.146;2023-04-25T08:59:05;10.50;;;1.92;;
31537;SDS011;18147;51.952;6.146;2023-04-25T09:01:35;8.18;;;2.00;;
31537;SDS011;18147;51.952;6.146;2023-04-25T09:04:01;11.23;;;2.17;;
31537;SDS011;18147;51.952;6.146;2023-04-25T09:06:30;7.97;;;1.85;;
31537;SDS011;18147;51.952;6.146;2023-04-25T09:09:05;7.57;;;2.15;;
31537;SDS011;18147;51.952;6.146;2023-04-25T09:11:32;6.97;;;2.08;;
31537;SDS011;18147;51.952;6.146;2023-04-25T09:14:10;6.30;;;2.00;;
31537;SDS011;18147;51.952;6.146;2023-04-25T09:17:04;7.85;;;2.05;;
31537;SDS011;18147;51.952;6.146;2023-04-25T09:20:05;7.15;;;1.77;;
31537;SDS011;18147;51.952;6.146;2023-04-25T09:22:35;6.75;;;2.05;;
31537;SDS011;18147;51.952;6.146;2023-04-25T09:25:09;8.80;;;2.40;;
31537;SDS011;18147;51.952;6.146;2023-04-25T09:27:51;12.27;;;2.10;;
31537;SDS011;18147;51.952;6.146;2023-04-25T09:30:31;6.38;;;2.00;;
31537;SDS011;18147;51.952;6.146;2023-04-25T09:33:07;7.68;;;2.47;;
31537;SDS011;18147;51.952;6.146;2023-04-25T09:35:44;8.70;;;2.03;;
31537;SDS011;18147;51.952;6.146;2023-04-25T09:38:21;7.45;;;1.88;;
31537;SDS011;18147;51.952;6.146;2023-04-25T09:40:59;21.00;;;2.25;;
31537;SDS011;18147;51.952;6.146;2023-04-25T09:43:41;8.38;;;1.85;;
31537;SDS011;18147;51.952;6.146;2023-04-25T09:46:12;8.80;;;2.03;;
31537;SDS011;18147;51.952;6.146;2023-04-25T09:48:49;9.75;;;2.25;;
31537;SDS011;18147;51.952;6.146;2023-04-25T09:51:17;8.18;;;1.98;;
31537;SDS011;18147;51.952;6.146;2023-04-25T09:53:45;11.48;;;1.90;;
31537;SDS011;18147;51.952;6.146;2023-04-25T09:56:43;12.50;;;2.40;;
31537;SDS011;18147;51.952;6.146;2023-04-25T09:59:13;10.13;;;2.17;;
31537;SDS011;18147;51.952;6.146;2023-04-25T10:01:40;8.82;;;2.38;;
31537;SDS011;18147;51.952;6.146;2023-04-25T10:04:11;7.13;;;1.80;;
31537;SDS011;18147;51.952;6.146;2023-04-25T10:06:52;11.20;;;2.25;;
31537;SDS011;18147;51.952;6.146;2023-04-25T10:09:22;7.03;;;1.92;;
31537;SDS011;18147;51.952;6.146;2023-04-25T10:14:17;11.80;;;2.17;;
31537;SDS011;18147;51.952;6.146;2023-04-25T10:16:44;7.95;;;1.90;;
31537;SDS011;18147;51.952;6.146;2023-04-25T10:19:10;8.30;;;1.88;;
31537;SDS011;18147;51.952;6.146;2023-04-25T10:21:37;9.30;;;2.45;;
31537;SDS011;18147;51.952;6.146;2023-04-25T10:24:19;9.57;;;2.13;;
31537;SDS011;18147;51.952;6.146;2023-04-25T10:26:45;7.78;;;2.53;;
31537;SDS011;18147;51.952;6.146;2023-04-25T10:29:12;4.00;;;1.63;;
31537;SDS011;18147;51.952;6.146;2023-04-25T10:31:44;4.28;;;1.25;;
31537;SDS011;18147;51.952;6.146;2023-04-25T10:34:12;8.77;;;1.63;;
31537;SDS011;18147;51.952;6.146;2023-04-25T10:36:37;5.45;;;1.70;;
31537;SDS011;18147;51.952;6.146;2023-04-25T10:39:04;9.07;;;2.35;;
31537;SDS011;18147;51.952;6.146;2023-04-25T10:41:46;5.22;;;1.60;;
31537;SDS011;18147;51.952;6.146;2023-04-25T10:44:18;3.63;;;1.38;;
31537;SDS011;18147;51.952;6.146;2023-04-25T10:46:44;9.20;;;2.10;;
31537;SDS011;18147;51.952;6.146;2023-04-25T10:49:11;13.20;;;2.67;;
31537;SDS011;18147;51.952;6.146;2023-04-25T10:52:10;10.82;;;2.20;;
31537;SDS011;18147;51.952;6.146;2023-04-25T10:55:02;8.38;;;2.05;;
31537;SDS011;18147;51.952;6.146;2023-04-25T10:57:40;14.35;;;2.22;;
31537;SDS011;18147;51.952;6.146;2023-04-25T11:00:08;9.45;;;2.05;;
31537;SDS011;18147;51.952;6.146;2023-04-25T11:02:52;8.30;;;1.70;;
31537;SDS011;18147;51.952;6.146;2023-04-25T11:05:20;7.68;;;1.45;;
31537;SDS011;18147;51.952;6.146;2023-04-25T11:07:52;8.02;;;1.75;;
31537;SDS011;18147;51.952;6.146;2023-04-25T11:10:26;6.97;;;1.60;;
31537;SDS011;18147;51.952;6.146;2023-04-25T11:12:52;5.65;;;1.65;;
31537;SDS011;18147;51.952;6.146;2023-04-25T11:15:18;6.80;;;1.77;;
31537;SDS011;18147;51.952;6.146;2023-04-25T11:17:44;6.78;;;1.63;;
31537;SDS011;18147;51.952;6.146;2023-04-25T11:20:11;11.85;;;2.15;;
31537;SDS011;18147;51.952;6.146;2023-04-25T11:22:39;8.57;;;2.05;;
31537;SDS011;18147;51.952;6.146;2023-04-25T11:25:08;4.85;;;1.70;;
31537;SDS011;18147;51.952;6.146;2023-04-25T11:27:39;3.90;;;1.67;;
31537;SDS011;18147;51.952;6.146;2023-04-25T11:30:15;7.25;;;2.00;;
31537;SDS011;18147;51.952;6.146;2023-04-25T11:32:41;10.82;;;1.98;;
31537;SDS011;18147;51.952;6.146;2023-04-25T11:35:08;6.10;;;1.55;;
31537;SDS011;18147;51.952;6.146;2023-04-25T11:37:34;7.38;;;1.63;;
31537;SDS011;18147;51.952;6.146;2023-04-25T11:40:02;8.02;;;1.88;;
31537;SDS011;18147;51.952;6.146;2023-04-25T11:42:31;6.00;;;1.55;;
31537;SDS011;18147;51.952;6.146;2023-04-25T11:44:59;5.82;;;1.48;;
31537;SDS011;18147;51.952;6.146;2023-04-25T11:47:31;9.02;;;3.45;;
31537;SDS011;18147;51.952;6.146;2023-04-25T11:49:59;7.80;;;2.72;;
31537;SDS011;18147;51.952;6.146;2023-04-25T11:52:35;7.43;;;2.00;;
31537;SDS011;18147;51.952;6.146;2023-04-25T11:55:08;8.23;;;1.83;;
31537;SDS011;18147;51.952;6.146;2023-04-25T11:57:44;7.30;;;1.70;;
31537;SDS011;18147;51.952;6.146;2023-04-25T12:02:44;5.40;;;1.52;;
31537;SDS011;18147;51.952;6.146;2023-04-25T12:05:11;4.50;;;1.42;;
31537;SDS011;18147;51.952;6.146;2023-04-25T12:07:38;5.03;;;1.30;;
31537;SDS011;18147;51.952;6.146;2023-04-25T12:10:10;3.85;;;1.10;;
31537;SDS011;18147;51.952;6.146;2023-04-25T12:12:38;4.18;;;1.65;;
31537;SDS011;18147;51.952;6.146;2023-04-25T12:15:13;3.45;;;1.35;;
31537;SDS011;18147;51.952;6.146;2023-04-25T12:17:45;4.07;;;1.48;;
31537;SDS011;18147;51.952;6.146;2023-04-25T12:20:15;7.60;;;1.55;;
31537;SDS011;18147;51.952;6.146;2023-04-25T12:22:44;7.97;;;1.87;;
31537;SDS011;18147;51.952;6.146;2023-04-25T12:30:52;4.68;;;1.50;;
31537;SDS011;18147;51.952;6.146;2023-04-25T12:33:35;6.47;;;1.95;;
31537;SDS011;18147;51.952;6.146;2023-04-25T12:36:03;9.80;;;1.80;;
31537;SDS011;18147;51.952;6.146;2023-04-25T12:38:37;6.55;;;2.38;;
31537;SDS011;18147;51.952;6.146;2023-04-25T12:41:05;9.70;;;1.77;;
31537;SDS011;18147;51.952;6.146;2023-04-25T12:43:31;11.50;;;2.60;;
31537;SDS011;18147;51.952;6.146;2023-04-25T12:45:57;6.05;;;2.00;;
31537;SDS011;18147;51.952;6.146;2023-04-25T12:48:23;7.20;;;2.00;;
31537;SDS011;18147;51.952;6.146;2023-04-25T12:50:49;10.63;;;2.10;;
31537;SDS011;18147;51.952;6.146;2023-04-25T12:53:16;8.15;;;2.20;;
31537;SDS011;18147;51.952;6.146;2023-04-25T12:55:47;9.93;;;2.17;;
31537;SDS011;18147;51.952;6.146;2023-04-25T12:58:16;10.35;;;2.25;;
31537;SDS011;18147;51.952;6.146;2023-04-25T13:00:43;8.13;;;2.13;;
31537;SDS011;18147;51.952;6.146;2023-04-25T13:03:09;8.38;;;2.00;;
31537;SDS011;18147;51.952;6.146;2023-04-25T13:05:36;6.65;;;1.80;;
31537;SDS011;18147;51.952;6.146;2023-04-25T13:08:02;4.88;;;1.58;;
31537;SDS011;18147;51.952;6.146;2023-04-25T13:10:28;3.80;;;1.70;;
31537;SDS011;18147;51.952;6.146;2023-04-25T13:12:53;2.50;;;1.20;;
31537;SDS011;18147;51.952;6.146;2023-04-25T13:15:19;6.88;;;2.13;;
31537;SDS011;18147;51.952;6.146;2023-04-25T13:17:45;5.97;;;1.55;;
31537;SDS011;18147;51.952;6.146;2023-04-25T13:20:10;4.63;;;1.58;;
31537;SDS011;18147;51.952;6.146;2023-04-25T13:22:39;5.97;;;1.90;;
31537;SDS011;18147;51.952;6.146;2023-04-25T13:25:08;8.68;;;1.40;;
31537;SDS011;18147;51.952;6.146;2023-04-25T13:27:34;7.63;;;1.58;;
31537;SDS011;18147;51.952;6.146;2023-04-25T13:30:07;4.20;;;1.73;;
31537;SDS011;18147;51.952;6.146;2023-04-25T13:32:37;4.25;;;1.30;;
31537;SDS011;18147;51.952;6.146;2023-04-25T13:35:07;2.65;;;1.30;;
31537;SDS011;18147;51.952;6.146;2023-04-25T13:37:34;5.87;;;1.43;;
31537;SDS011;18147;51.952;6.146;2023-04-25T13:40:09;9.43;;;1.95;;
31537;SDS011;18147;51.952;6.146;2023-04-25T13:42:39;9.20;;;1.77;;
31537;SDS011;18147;51.952;6.146;2023-04-25T13:45:06;8.73;;;1.40;;
31537;SDS011;18147;51.952;6.146;2023-04-25T13:47:32;6.97;;;1.92;;
31537;SDS011;18147;51.952;6.146;2023-04-25T13:49:58;3.40;;;1.50;;
31537;SDS011;18147;51.952;6.146;2023-04-25T13:52:25;8.93;;;1.90;;
31537;SDS011;18147;51.952;6.146;2023-04-25T13:54:51;5.75;;;1.30;;
31537;SDS011;18147;51.952;6.146;2023-04-25T13:57:19;9.27;;;2.25;;
31537;SDS011;18147;51.952;6.146;2023-04-25T13:59:45;7.70;;;1.90;;
31537;SDS011;18147;51.952;6.146;2023-04-25T14:02:12;7.03;;;1.45;;
31537;SDS011;18147;51.952;6.146;2023-04-25T14:04:38;10.85;;;1.73;;
31537;SDS011;18147;51.952;6.146;2023-04-25T14:07:03;3.83;;;1.17;;
31537;SDS011;18147;51.952;6.146;2023-04-25T14:09:30;5.60;;;1.77;;
31537;SDS011;18147;51.952;6.146;2023-04-25T14:11:55;5.35;;;1.42;;
31537;SDS011;18147;51.952;6.146;2023-04-25T14:14:21;9.20;;;1.75;;
31537;SDS011;18147;51.952;6.146;2023-04-25T14:16:48;6.68;;;1.70;;
31537;SDS011;18147;51.952;6.146;2023-04-25T14:19:16;4.45;;;1.77;;
31537;SDS011;18147;51.952;6.146;2023-04-25T14:21:42;4.88;;;1.75;;
31537;SDS011;18147;51.952;6.146;2023-04-25T14:24:08;6.30;;;1.30;;
31537;SDS011;18147;51.952;6.146;2023-04-25T14:26:36;4.63;;;1.42;;
31537;SDS011;18147;51.952;6.146;2023-04-25T14:29:02;5.80;;;1.88;;
31537;SDS011;18147;51.952;6.146;2023-04-25T14:31:30;6.40;;;1.42;;
31537;SDS011;18147;51.952;6.146;2023-04-25T14:33:55;5.57;;;1.20;;
31537;SDS011;18147;51.952;6.146;2023-04-25T14:36:21;10.57;;;1.70;;
31537;SDS011;18147;51.952;6.146;2023-04-25T14:38:46;5.30;;;1.45;;
31537;SDS011;18147;51.952;6.146;2023-04-25T14:41:12;10.00;;;1.80;;
31537;SDS011;18147;51.952;6.146;2023-04-25T14:43:41;2.67;;;1.55;;
31537;SDS011;18147;51.952;6.146;2023-04-25T14:46:06;5.03;;;1.50;;
31537;SDS011;18147;51.952;6.146;2023-04-25T14:48:32;6.20;;;2.25;;
31537;SDS011;18147;51.952;6.146;2023-04-25T14:50:59;7.13;;;2.03;;
31537;SDS011;18147;51.952;6.146;2023-04-25T14:53:25;6.63;;;1.63;;
31537;SDS011;18147;51.952;6.146;2023-04-25T14:55:52;10.68;;;2.13;;
31537;SDS011;18147;51.952;6.146;2023-04-25T14:58:17;5.78;;;2.08;;
31537;SDS011;18147;51.952;6.146;2023-04-25T15:00:43;5.55;;;1.88;;
31537;SDS011;18147;51.952;6.146;2023-04-25T15:03:09;5.28;;;1.80;;
31537;SDS011;18147;51.952;6.146;2023-04-25T15:05:36;8.63;;;2.10;;
31537;SDS011;18147;51.952;6.146;2023-04-25T15:08:02;7.10;;;1.98;;
31537;SDS011;18147;51.952;6.146;2023-04-25T15:10:28;4.40;;;1.83;;
31537;SDS011;18147;51.952;6.146;2023-04-25T15:12:53;4.60;;;1.52;;